sensor_id;sensor_type;location;lat;lon;timestamp;P1;durP1;ratioP1;P2;durP2;ratioP2
31043;SDS011;17710;52.520;13.352;2023-08-21T00:00:12;10.57;;;7.07;;
31043;SDS011;17710;52.520;13.352;2023-08-21T00:02:39;9.98;;;6.78;;
31043;SDS011;17710;52.520;13.352;2023-08-21T00:05:06;9.18;;;6.85;;
31043;SDS011;17710;52.520;13.352;2023-08-21T00:07:34;13.27;;;6.57;;
31043;SDS011;17710;52.520;13.352;2023-08-21T00:10:00;10.60;;;6.30;;
31043;SDS011;17710;52.520;13.352;2023-08-21T00:12:26;10.27;;;6.40;;
31043;SDS011;17710;52.520;13.352;2023-08-21T00:14:54;12.32;;;6.57;;
31043;SDS011;17710;52.520;13.352;2023-08-21T00:17:21;9.25;;;6.25;;
31043;SDS011;17710;52.520;13.352;2023-08-21T00:19:47;7.35;;;5.90;;
31043;SDS011;17710;52.520;13.352;2023-08-21T00:22:13;10.45;;;6.00;;
31043;SDS011;17710;52.520;13.352;2023-08-21T00:24:40;11.18;;;5.78;;
31043;SDS011;17710;52.520;13.352;2023-08-21T00:27:06;9.52;;;6.60;;
31043;SDS011;17710;52.520;13.352;2023-08-21T00:29:32;10.43;;;6.07;;
31043;SDS011;17710;52.520;13.352;2023-08-21T00:32:00;10.38;;;6.05;;
31043;SDS011;17710;52.520;13.352;2023-08-21T00:34:26;9.27;;;6.25;;
31043;SDS011;17710;52.520;13.352;2023-08-21T00:36:53;7.43;;;5.30;;
31043;SDS011;17710;52.520;13.352;2023-08-21T00:39:19;9.57;;;5.95;;
31043;SDS011;17710;52.520;13.352;2023-08-21T00:41:45;9.85;;;6.05;;
31043;SDS011;17710;52.520;13.352;2023-08-21T00:44:12;11.73;;;6.30;;
31043;SDS011;17710;52.520;13.352;2023-08-21T00:46:39;9.35;;;6.15;;
31043;SDS011;17710;52.520;13.352;2023-08-21T00:49:07;8.50;;;5.50;;
31043;SDS011;17710;52.520;13.352;2023-08-21T00:51:33;9.23;;;6.55;;
31043;SDS011;17710;52.520;13.352;2023-08-21T00:53:59;9.65;;;7.05;;
31043;SDS011;17710;52.520;13.352;2023-08-21T00:56:26;8.25;;;6.20;;
31043;SDS011;17710;52.520;13.352;2023-08-21T00:58:52;12.05;;;6.95;;
31043;SDS011;17710;52.520;13.352;2023-08-21T01:01:19;11.10;;;6.60;;
31043;SDS011;17710;52.520;13.352;2023-08-21T01:03:49;12.75;;;6.43;;
31043;SDS011;17710;52.520;13.352;2023-08-21T01:06:17;9.43;;;6.70;;
31043;SDS011;17710;52.520;13.352;2023-08-21T01:08:47;8.80;;;7.05;;
31043;SDS011;17710;52.520;13.352;2023-08-21T01:11:20;12.38;;;6.55;;
31043;SDS011;17710;52.520;13.352;2023-08-21T01:13:52;11.68;;;7.10;;
31043;SDS011;17710;52.520;13.352;2023-08-21T01:16:25;12.23;;;6.90;;
31043;SDS011;17710;52.520;13.352;2023-08-21T01:18:52;12.57;;;7.38;;
31043;SDS011;17710;52.520;13.352;2023-08-21T01:21:23;9.20;;;6.85;;
31043;SDS011;17710;52.520;13.352;2023-08-21T01:23:51;9.43;;;6.40;;
31043;SDS011;17710;52.520;13.352;2023-08-21T01:26:18;8.23;;;7.05;;
31043;SDS011;17710;52.520;13.352;2023-08-21T01:28:45;13.32;;;7.40;;
31043;SDS011;17710;52.520;13.352;2023-08-21T01:31:15;9.68;;;6.68;;
31043;SDS011;17710;52.520;13.352;2023-08-21T01:33:51;9.30;;;6.72;;
31043;SDS011;17710;52.520;13.352;2023-08-21T01:36:21;11.15;;;7.47;;
31043;SDS011;17710;52.520;13.352;2023-08-21T01:38:48;11.93;;;7.25;;
31043;SDS011;17710;52.520;13.352;2023-08-21T01:41:17;9.57;;;7.05;;
31043;SDS011;17710;52.520;13.352;2023-08-21T01:43:44;19.27;;;7.53;;
31043;SDS011;17710;52.520;13.352;2023-08-21T01:46:10;14.20;;;7.50;;
31043;SDS011;17710;52.520;13.352;2023-08-21T01:48:37;9.30;;;7.70;;
31043;SDS011;17710;52.520;13.352;2023-08-21T01:51:03;11.75;;;7.68;;
31043;SDS011;17710;52.520;13.352;2023-08-21T01:53:30;9.73;;;7.03;;
31043;SDS011;17710;52.520;13.352;2023-08-21T01:55:56;11.20;;;7.70;;
31043;SDS011;17710;52.520;13.352;2023-08-21T01:58:24;10.40;;;7.35;;
31043;SDS011;17710;52.520;13.352;2023-08-21T02:00:50;12.00;;;7.10;;
31043;SDS011;17710;52.520;13.352;2023-08-21T02:03:16;12.27;;;7.47;;
31043;SDS011;17710;52.520;13.352;2023-08-21T02:05:43;9.18;;;6.47;;
31043;SDS011;17710;52.520;13.352;2023-08-21T02:08:11;11.30;;;6.95;;
31043;SDS011;17710;52.520;13.352;2023-08-21T02:10:46;8.93;;;6.95;;
31043;SDS011;17710;52.520;13.352;2023-08-21T02:13:13;9.30;;;7.43;;
31043;SDS011;17710;52.520;13.352;2023-08-21T02:15:40;10.80;;;8.02;;
31043;SDS011;17710;52.520;13.352;2023-08-21T02:18:07;10.30;;;6.95;;
31043;SDS011;17710;52.520;13.352;2023-08-21T02:20:34;9.57;;;7.25;;
31043;SDS011;17710;52.520;13.352;2023-08-21T02:23:00;10.32;;;6.78;;
31043;SDS011;17710;52.520;13.352;2023-08-21T02:25:27;11.82;;;7.03;;
31043;SDS011;17710;52.520;13.352;2023-08-21T02:27:53;11.95;;;7.43;;
31043;SDS011;17710;52.520;13.352;2023-08-21T02:30:19;13.70;;;6.93;;
31043;SDS011;17710;52.520;13.352;2023-08-21T02:32:51;12.32;;;7.10;;
31043;SDS011;17710;52.520;13.352;2023-08-21T02:35:18;13.80;;;7.00;;
31043;SDS011;17710;52.520;13.352;2023-08-21T02:37:44;9.52;;;6.68;;
31043;SDS011;17710;52.520;13.352;2023-08-21T02:40:10;10.13;;;7.13;;
31043;SDS011;17710;52.520;13.352;2023-08-21T02:42:37;10.40;;;6.72;;
31043;SDS011;17710;52.520;13.352;2023-08-21T02:45:04;11.07;;;6.75;;
31043;SDS011;17710;52.520;13.352;2023-08-21T02:47:34;15.65;;;7.32;;
31043;SDS011;17710;52.520;13.352;2023-08-21T02:50:04;10.57;;;6.82;;
31043;SDS011;17710;52.520;13.352;2023-08-21T02:52:32;13.55;;;6.68;;
31043;SDS011;17710;52.520;13.352;2023-08-21T02:54:58;9.65;;;6.75;;
31043;SDS011;17710;52.520;13.352;2023-08-21T02:57:25;11.25;;;7.10;;
31043;SDS011;17710;52.520;13.352;2023-08-21T02:59:52;13.05;;;6.78;;
31043;SDS011;17710;52.520;13.352;2023-08-21T03:02:19;12.38;;;6.80;;
31043;SDS011;17710;52.520;13.352;2023-08-21T03:04:46;15.68;;;7.93;;
31043;SDS011;17710;52.520;13.352;2023-08-21T03:07:14;11.85;;;6.43;;
31043;SDS011;17710;52.520;13.352;2023-08-21T03:09:41;12.63;;;7.22;;
31043;SDS011;17710;52.520;13.352;2023-08-21T03:12:08;11.93;;;7.05;;
31043;SDS011;17710;52.520;13.352;2023-08-21T03:14:34;10.25;;;7.82;;
31043;SDS011;17710;52.520;13.352;2023-08-21T03:17:03;10.65;;;7.10;;
31043;SDS011;17710;52.520;13.352;2023-08-21T03:19:29;11.48;;;7.25;;
31043;SDS011;17710;52.520;13.352;2023-08-21T03:21:56;7.70;;;6.90;;
31043;SDS011;17710;52.520;13.352;2023-08-21T03:24:24;10.43;;;6.88;;
31043;SDS011;17710;52.520;13.352;2023-08-21T03:26:50;8.27;;;6.85;;
31043;SDS011;17710;52.520;13.352;2023-08-21T03:29:17;9.43;;;6.95;;
31043;SDS011;17710;52.520;13.352;2023-08-21T03:31:43;12.15;;;7.63;;
31043;SDS011;17710;52.520;13.352;2023-08-21T03:34:12;12.43;;;7.40;;
31043;SDS011;17710;52.520;13.352;2023-08-21T03:36:39;8.45;;;6.53;;
31043;SDS011;17710;52.520;13.352;2023-08-21T03:39:05;12.60;;;7.53;;
31043;SDS011;17710;52.520;13.352;2023-08-21T03:41:33;9.85;;;7.07;;
31043;SDS011;17710;52.520;13.352;2023-08-21T03:43:59;15.90;;;7.32;;
31043;SDS011;17710;52.520;13.352;2023-08-21T03:46:26;8.15;;;6.78;;
31043;SDS011;17710;52.520;13.352;2023-08-21T03:48:52;8.13;;;7.30;;
31043;SDS011;17710;52.520;13.352;2023-08-21T03:51:19;11.57;;;6.80;;
31043;SDS011;17710;52.520;13.352;2023-08-21T03:53:45;10.13;;;7.03;;
31043;SDS011;17710;52.520;13.352;2023-08-21T03:56:11;13.15;;;7.05;;
31043;SDS011;17710;52.520;13.352;2023-08-21T03:58:39;15.00;;;7.40;;
31043;SDS011;17710;52.520;13.352;2023-08-21T04:01:05;10.30;;;6.82;;
31043;SDS011;17710;52.520;13.352;2023-08-21T04:03:32;10.73;;;7.15;;
31043;SDS011;17710;52.520;13.352;2023-08-21T04:05:59;11.48;;;6.97;;
31043;SDS011;17710;52.520;13.352;2023-08-21T04:08:27;11.27;;;7.30;;
31043;SDS011;17710;52.520;13.352;2023-08-21T04:10:53;8.30;;;6.55;;
31043;SDS011;17710;52.520;13.352;2023-08-21T04:13:25;12.98;;;7.45;;
31043;SDS011;17710;52.520;13.352;2023-08-21T04:15:52;9.25;;;7.50;;
31043;SDS011;17710;52.520;13.352;2023-08-21T04:18:20;9.60;;;6.47;;
31043;SDS011;17710;52.520;13.352;2023-08-21T04:20:47;12.07;;;6.35;;
31043;SDS011;17710;52.520;13.352;2023-08-21T04:23:14;11.57;;;6.60;;
31043;SDS011;17710;52.520;13.352;2023-08-21T04:25:41;9.15;;;6.47;;
31043;SDS011;17710;52.520;13.352;2023-08-21T04:28:08;9.70;;;6.40;;
31043;SDS011;17710;52.520;13.352;2023-08-21T04:30:35;9.20;;;6.85;;
31043;SDS011;17710;52.520;13.352;2023-08-21T04:33:03;7.43;;;6.32;;
31043;SDS011;17710;52.520;13.352;2023-08-21T04:35:35;11.95;;;6.40;;
31043;SDS011;17710;52.520;13.352;2023-08-21T04:38:02;17.45;;;7.25;;
31043;SDS011;17710;52.520;13.352;2023-08-21T04:40:29;11.55;;;7.20;;
31043;SDS011;17710;52.520;13.352;2023-08-21T04:42:55;11.93;;;6.93;;
31043;SDS011;17710;52.520;13.352;2023-08-21T04:45:22;9.50;;;6.40;;
31043;SDS011;17710;52.520;13.352;2023-08-21T04:47:48;11.32;;;6.60;;
31043;SDS011;17710;52.520;13.352;2023-08-21T04:50:16;10.63;;;6.72;;
31043;SDS011;17710;52.520;13.352;2023-08-21T04:52:42;17.00;;;7.60;;
31043;SDS011;17710;52.520;13.352;2023-08-21T04:55:09;8.48;;;6.80;;
31043;SDS011;17710;52.520;13.352;2023-08-21T04:57:35;13.32;;;7.30;;
31043;SDS011;17710;52.520;13.352;2023-08-21T05:00:02;9.05;;;7.10;;
31043;SDS011;17710;52.520;13.352;2023-08-21T05:02:29;16.48;;;7.90;;
31043;SDS011;17710;52.520;13.352;2023-08-21T05:04:56;13.90;;;7.63;;
31043;SDS011;17710;52.520;13.352;2023-08-21T05:07:23;9.95;;;6.97;;
31043;SDS011;17710;52.520;13.352;2023-08-21T05:09:51;12.75;;;7.88;;
31043;SDS011;17710;52.520;13.352;2023-08-21T05:12:18;11.90;;;8.00;;
31043;SDS011;17710;52.520;13.352;2023-08-21T05:14:44;10.93;;;8.05;;
31043;SDS011;17710;52.520;13.352;2023-08-21T05:17:10;12.20;;;7.95;;
31043;SDS011;17710;52.520;13.352;2023-08-21T05:19:37;9.00;;;7.32;;
31043;SDS011;17710;52.520;13.352;2023-08-21T05:22:03;10.60;;;7.70;;
31043;SDS011;17710;52.520;13.352;2023-08-21T05:24:31;15.68;;;8.30;;
31043;SDS011;17710;52.520;13.352;2023-08-21T05:26:58;12.02;;;7.53;;
31043;SDS011;17710;52.520;13.352;2023-08-21T05:29:24;8.75;;;7.60;;
31043;SDS011;17710;52.520;13.352;2023-08-21T05:31:51;10.82;;;7.65;;
31043;SDS011;17710;52.520;13.352;2023-08-21T05:34:17;15.82;;;8.07;;
31043;SDS011;17710;52.520;13.352;2023-08-21T05:36:43;9.40;;;7.38;;
31043;SDS011;17710;52.520;13.352;2023-08-21T05:39:10;11.85;;;7.38;;
31043;SDS011;17710;52.520;13.352;2023-08-21T05:41:37;11.68;;;7.22;;
31043;SDS011;17710;52.520;13.352;2023-08-21T05:44:04;7.93;;;6.70;;
31043;SDS011;17710;52.520;13.352;2023-08-21T05:46:30;10.23;;;7.28;;
31043;SDS011;17710;52.520;13.352;2023-08-21T05:48:57;7.65;;;6.85;;
31043;SDS011;17710;52.520;13.352;2023-08-21T05:51:23;13.35;;;7.95;;
31043;SDS011;17710;52.520;13.352;2023-08-21T05:53:50;10.82;;;6.72;;
31043;SDS011;17710;52.520;13.352;2023-08-21T05:56:16;10.80;;;7.65;;
31043;SDS011;17710;52.520;13.352;2023-08-21T05:58:44;14.05;;;7.78;;
31043;SDS011;17710;52.520;13.352;2023-08-21T06:01:11;11.07;;;7.55;;
31043;SDS011;17710;52.520;13.352;2023-08-21T06:03:37;11.23;;;7.32;;
31043;SDS011;17710;52.520;13.352;2023-08-21T06:06:04;9.55;;;6.68;;
31043;SDS011;17710;52.520;13.352;2023-08-21T06:08:31;11.32;;;7.85;;
31043;SDS011;17710;52.520;13.352;2023-08-21T06:10:57;11.75;;;7.15;;
31043;SDS011;17710;52.520;13.352;2023-08-21T06:13:24;13.50;;;7.93;;
31043;SDS011;17710;52.520;13.352;2023-08-21T06:15:55;13.65;;;7.47;;
31043;SDS011;17710;52.520;13.352;2023-08-21T06:18:22;12.75;;;7.13;;
31043;SDS011;17710;52.520;13.352;2023-08-21T06:20:48;12.40;;;7.63;;
31043;SDS011;17710;52.520;13.352;2023-08-21T06:23:18;10.45;;;6.80;;
31043;SDS011;17710;52.520;13.352;2023-08-21T06:25:44;13.82;;;6.78;;
31043;SDS011;17710;52.520;13.352;2023-08-21T06:28:11;8.40;;;7.20;;
31043;SDS011;17710;52.520;13.352;2023-08-21T06:30:38;9.27;;;6.97;;
31043;SDS011;17710;52.520;13.352;2023-08-21T06:33:05;13.05;;;7.25;;
31043;SDS011;17710;52.520;13.352;2023-08-21T06:35:32;12.57;;;8.05;;
31043;SDS011;17710;52.520;13.352;2023-08-21T06:37:58;10.45;;;7.88;;
31043;SDS011;17710;52.520;13.352;2023-08-21T06:40:24;11.40;;;7.43;;
31043;SDS011;17710;52.520;13.352;2023-08-21T06:42:51;9.15;;;7.25;;
31043;SDS011;17710;52.520;13.352;2023-08-21T06:45:17;16.45;;;8.18;;
31043;SDS011;17710;52.520;13.352;2023-08-21T06:47:44;14.23;;;7.57;;
31043;SDS011;17710;52.520;13.352;2023-08-21T06:50:12;14.60;;;7.57;;
31043;SDS011;17710;52.520;13.352;2023-08-21T06:52:39;10.05;;;7.57;;
31043;SDS011;17710;52.520;13.352;2023-08-21T06:55:06;13.20;;;7.03;;
31043;SDS011;17710;52.520;13.352;2023-08-21T06:57:32;12.05;;;7.60;;
31043;SDS011;17710;52.520;13.352;2023-08-21T06:59:59;14.27;;;7.57;;
31043;SDS011;17710;52.520;13.352;2023-08-21T07:02:25;16.60;;;7.20;;
31043;SDS011;17710;52.520;13.352;2023-08-21T07:04:52;12.57;;;7.22;;
31043;SDS011;17710;52.520;13.352;2023-08-21T07:07:19;10.50;;;6.40;;
31043;SDS011;17710;52.520;13.352;2023-08-21T07:09:46;10.38;;;7.10;;
31043;SDS011;17710;52.520;13.352;2023-08-21T07:12:12;10.50;;;6.85;;
31043;SDS011;17710;52.520;13.352;2023-08-21T07:14:39;8.65;;;4.85;;
31043;SDS011;17710;52.520;13.352;2023-08-21T07:17:05;9.55;;;5.25;;
31043;SDS011;17710;52.520;13.352;2023-08-21T07:19:31;9.52;;;5.30;;
31043;SDS011;17710;52.520;13.352;2023-08-21T07:21:58;11.02;;;5.53;;
31043;SDS011;17710;52.520;13.352;2023-08-21T07:24:26;9.63;;;5.07;;
31043;SDS011;17710;52.520;13.352;2023-08-21T07:26:52;8.18;;;4.60;;
31043;SDS011;17710;52.520;13.352;2023-08-21T07:29:19;7.05;;;4.82;;
31043;SDS011;17710;52.520;13.352;2023-08-21T07:31:45;15.90;;;5.03;;
31043;SDS011;17710;52.520;13.352;2023-08-21T07:34:14;6.22;;;4.68;;
31043;SDS011;17710;52.520;13.352;2023-08-21T07:36:41;9.23;;;4.50;;
31043;SDS011;17710;52.520;13.352;2023-08-21T07:39:09;11.40;;;4.78;;
31043;SDS011;17710;52.520;13.352;2023-08-21T07:41:37;8.27;;;4.43;;
31043;SDS011;17710;52.520;13.352;2023-08-21T07:44:03;8.60;;;4.95;;
31043;SDS011;17710;52.520;13.352;2023-08-21T07:46:30;10.20;;;4.50;;
31043;SDS011;17710;52.520;13.352;2023-08-21T07:48:56;27.02;;;5.65;;
31043;SDS011;17710;52.520;13.352;2023-08-21T07:51:22;9.98;;;4.28;;
31043;SDS011;17710;52.520;13.352;2023-08-21T07:53:49;5.25;;;3.50;;
31043;SDS011;17710;52.520;13.352;2023-08-21T07:56:15;6.40;;;4.20;;
31043;SDS011;17710;52.520;13.352;2023-08-21T07:58:43;6.43;;;3.70;;
31043;SDS011;17710;52.520;13.352;2023-08-21T08:01:09;6.13;;;3.33;;
31043;SDS011;17710;52.520;13.352;2023-08-21T08:03:36;6.88;;;3.30;;
31043;SDS011;17710;52.520;13.352;2023-08-21T08:06:02;4.85;;;3.38;;
31043;SDS011;17710;52.520;13.352;2023-08-21T08:08:29;5.28;;;3.28;;
31043;SDS011;17710;52.520;13.352;2023-08-21T08:10:59;9.40;;;3.65;;
31043;SDS011;17710;52.520;13.352;2023-08-21T08:13:27;11.23;;;3.78;;
31043;SDS011;17710;52.520;13.352;2023-08-21T08:15:55;4.95;;;3.47;;
31043;SDS011;17710;52.520;13.352;2023-08-21T08:18:21;6.55;;;3.20;;
31043;SDS011;17710;52.520;13.352;2023-08-21T08:20:47;6.72;;;2.92;;
31043;SDS011;17710;52.520;13.352;2023-08-21T08:23:14;5.70;;;2.90;;
31043;SDS011;17710;52.520;13.352;2023-08-21T08:25:40;5.97;;;2.85;;
31043;SDS011;17710;52.520;13.352;2023-08-21T08:28:06;7.00;;;3.22;;
31043;SDS011;17710;52.520;13.352;2023-08-21T08:30:33;6.45;;;2.97;;
31043;SDS011;17710;52.520;13.352;2023-08-21T08:33:02;6.20;;;2.53;;
31043;SDS011;17710;52.520;13.352;2023-08-21T08:35:29;7.47;;;2.80;;
31043;SDS011;17710;52.520;13.352;2023-08-21T08:37:55;11.27;;;3.03;;
31043;SDS011;17710;52.520;13.352;2023-08-21T08:40:22;14.63;;;2.13;;
31043;SDS011;17710;52.520;13.352;2023-08-21T08:42:48;4.95;;;1.83;;
31043;SDS011;17710;52.520;13.352;2023-08-21T08:45:15;7.60;;;1.85;;
31043;SDS011;17710;52.520;13.352;2023-08-21T08:47:50;6.55;;;1.75;;
31043;SDS011;17710;52.520;13.352;2023-08-21T08:50:18;12.23;;;1.80;;
31043;SDS011;17710;52.520;13.352;2023-08-21T08:52:45;9.02;;;1.67;;
31043;SDS011;17710;52.520;13.352;2023-08-21T08:55:12;7.68;;;1.40;;
31043;SDS011;17710;52.520;13.352;2023-08-21T08:57:39;5.90;;;1.25;;
31043;SDS011;17710;52.520;13.352;2023-08-21T09:00:06;7.25;;;1.20;;
31043;SDS011;17710;52.520;13.352;2023-08-21T09:02:33;4.70;;;0.93;;
31043;SDS011;17710;52.520;13.352;2023-08-21T09:05:00;4.88;;;1.08;;
31043;SDS011;17710;52.520;13.352;2023-08-21T09:07:28;9.48;;;1.30;;
31043;SDS011;17710;52.520;13.352;2023-08-21T09:09:54;3.53;;;1.17;;
31043;SDS011;17710;52.520;13.352;2023-08-21T09:12:20;5.97;;;1.20;;
31043;SDS011;17710;52.520;13.352;2023-08-21T09:14:47;3.97;;;1.40;;
31043;SDS011;17710;52.520;13.352;2023-08-21T09:17:13;3.03;;;1.50;;
31043;SDS011;17710;52.520;13.352;2023-08-21T09:19:40;10.77;;;2.00;;
31043;SDS011;17710;52.520;13.352;2023-08-21T09:22:08;4.35;;;1.70;;
31043;SDS011;17710;52.520;13.352;2023-08-21T09:24:37;10.40;;;3.20;;
31043;SDS011;17710;52.520;13.352;2023-08-21T09:27:03;2.70;;;1.40;;
31043;SDS011;17710;52.520;13.352;2023-08-21T09:29:37;3.80;;;1.42;;
31043;SDS011;17710;52.520;13.352;2023-08-21T09:32:04;3.83;;;0.93;;
31043;SDS011;17710;52.520;13.352;2023-08-21T09:34:33;1.95;;;0.95;;
31043;SDS011;17710;52.520;13.352;2023-08-21T09:37:01;4.10;;;1.05;;
31043;SDS011;17710;52.520;13.352;2023-08-21T09:39:32;3.63;;;1.23;;
31043;SDS011;17710;52.520;13.352;2023-08-21T09:42:01;4.05;;;1.40;;
31043;SDS011;17710;52.520;13.352;2023-08-21T09:44:27;2.80;;;1.48;;
31043;SDS011;17710;52.520;13.352;2023-08-21T09:46:55;4.10;;;1.60;;
31043;SDS011;17710;52.520;13.352;2023-08-21T09:49:21;4.07;;;1.20;;
31043;SDS011;17710;52.520;13.352;2023-08-21T09:51:48;4.88;;;2.13;;
31043;SDS011;17710;52.520;13.352;2023-08-21T09:54:15;5.30;;;1.70;;
31043;SDS011;17710;52.520;13.352;2023-08-21T09:56:42;5.57;;;1.70;;
31043;SDS011;17710;52.520;13.352;2023-08-21T09:59:10;5.28;;;1.15;;
31043;SDS011;17710;52.520;13.352;2023-08-21T10:01:37;5.70;;;2.00;;
31043;SDS011;17710;52.520;13.352;2023-08-21T10:04:05;6.47;;;1.77;;
31043;SDS011;17710;52.520;13.352;2023-08-21T10:06:33;5.30;;;1.65;;
31043;SDS011;17710;52.520;13.352;2023-08-21T10:09:01;7.93;;;1.67;;
31043;SDS011;17710;52.520;13.352;2023-08-21T10:11:29;3.83;;;1.77;;
31043;SDS011;17710;52.520;13.352;2023-08-21T10:13:55;4.97;;;1.75;;
31043;SDS011;17710;52.520;13.352;2023-08-21T10:16:23;7.93;;;2.03;;
31043;SDS011;17710;52.520;13.352;2023-08-21T10:18:51;9.80;;;1.95;;
31043;SDS011;17710;52.520;13.352;2023-08-21T10:21:18;2.70;;;1.17;;
31043;SDS011;17710;52.520;13.352;2023-08-21T10:23:46;4.97;;;1.15;;
31043;SDS011;17710;52.520;13.352;2023-08-21T10:26:13;4.65;;;1.10;;
31043;SDS011;17710;52.520;13.352;2023-08-21T10:28:41;5.97;;;1.42;;
31043;SDS011;17710;52.520;13.352;2023-08-21T10:31:26;5.00;;;1.20;;
31043;SDS011;17710;52.520;13.352;2023-08-21T10:33:53;4.97;;;1.30;;
31043;SDS011;17710;52.520;13.352;2023-08-21T10:39:28;4.97;;;1.40;;
31043;SDS011;17710;52.520;13.352;2023-08-21T10:41:56;3.33;;;1.02;;
31043;SDS011;17710;52.520;13.352;2023-08-21T10:44:33;7.43;;;1.70;;
31043;SDS011;17710;52.520;13.352;2023-08-21T10:47:15;2.00;;;1.20;;
31043;SDS011;17710;52.520;13.352;2023-08-21T10:49:43;5.70;;;1.25;;
31043;SDS011;17710;52.520;13.352;2023-08-21T10:52:10;4.03;;;1.25;;
31043;SDS011;17710;52.520;13.352;2023-08-21T10:54:47;6.13;;;1.13;;
31043;SDS011;17710;52.520;13.352;2023-08-21T10:57:14;3.13;;;1.40;;
31043;SDS011;17710;52.520;13.352;2023-08-21T10:59:54;2.88;;;1.13;;
31043;SDS011;17710;52.520;13.352;2023-08-21T11:02:23;5.07;;;1.02;;
31043;SDS011;17710;52.520;13.352;2023-08-21T11:04:51;5.43;;;1.30;;
31043;SDS011;17710;52.520;13.352;2023-08-21T11:07:17;8.07;;;0.98;;
31043;SDS011;17710;52.520;13.352;2023-08-21T11:09:44;2.95;;;1.13;;
31043;SDS011;17710;52.520;13.352;2023-08-21T11:12:11;3.95;;;1.08;;
31043;SDS011;17710;52.520;13.352;2023-08-21T11:14:39;6.22;;;1.63;;
31043;SDS011;17710;52.520;13.352;2023-08-21T11:17:06;2.83;;;1.15;;
31043;SDS011;17710;52.520;13.352;2023-08-21T11:19:35;3.47;;;1.30;;
31043;SDS011;17710;52.520;13.352;2023-08-21T11:22:02;5.53;;;1.65;;
31043;SDS011;17710;52.520;13.352;2023-08-21T11:24:31;4.13;;;1.10;;
31043;SDS011;17710;52.520;13.352;2023-08-21T11:27:04;4.07;;;0.90;;
31043;SDS011;17710;52.520;13.352;2023-08-21T11:29:31;5.03;;;1.48;;
31043;SDS011;17710;52.520;13.352;2023-08-21T11:32:02;5.68;;;2.55;;
31043;SDS011;17710;52.520;13.352;2023-08-21T11:34:31;3.60;;;0.77;;
31043;SDS011;17710;52.520;13.352;2023-08-21T11:37:00;4.18;;;1.00;;
31043;SDS011;17710;52.520;13.352;2023-08-21T11:39:26;4.32;;;1.85;;
31043;SDS011;17710;52.520;13.352;2023-08-21T11:42:08;3.90;;;1.10;;
31043;SDS011;17710;52.520;13.352;2023-08-21T11:44:39;4.78;;;1.40;;
31043;SDS011;17710;52.520;13.352;2023-08-21T11:47:06;5.93;;;1.20;;
31043;SDS011;17710;52.520;13.352;2023-08-21T11:49:33;17.17;;;1.98;;
31043;SDS011;17710;52.520;13.352;2023-08-21T11:52:04;2.35;;;0.85;;
31043;SDS011;17710;52.520;13.352;2023-08-21T11:54:32;5.22;;;1.38;;
31043;SDS011;17710;52.520;13.352;2023-08-21T11:57:00;4.05;;;1.05;;
31043;SDS011;17710;52.520;13.352;2023-08-21T11:59:30;3.88;;;1.27;;
31043;SDS011;17710;52.520;13.352;2023-08-21T12:01:59;4.65;;;1.77;;
31043;SDS011;17710;52.520;13.352;2023-08-21T12:04:26;4.88;;;1.95;;
31043;SDS011;17710;52.520;13.352;2023-08-21T12:06:53;2.55;;;1.08;;
31043;SDS011;17710;52.520;13.352;2023-08-21T12:09:20;6.47;;;1.33;;
31043;SDS011;17710;52.520;13.352;2023-08-21T12:11:47;4.30;;;1.10;;
31043;SDS011;17710;52.520;13.352;2023-08-21T12:14:14;7.25;;;1.52;;
31043;SDS011;17710;52.520;13.352;2023-08-21T12:16:42;5.43;;;1.30;;
31043;SDS011;17710;52.520;13.352;2023-08-21T12:19:08;4.28;;;1.35;;
31043;SDS011;17710;52.520;13.352;2023-08-21T12:21:37;5.53;;;1.30;;
31043;SDS011;17710;52.520;13.352;2023-08-21T12:24:04;3.83;;;1.27;;
31043;SDS011;17710;52.520;13.352;2023-08-21T12:26:32;104.20;;;8.73;;
31043;SDS011;17710;52.520;13.352;2023-08-21T12:29:00;5.55;;;1.40;;
31043;SDS011;17710;52.520;13.352;2023-08-21T12:31:27;5.43;;;1.50;;
31043;SDS011;17710;52.520;13.352;2023-08-21T12:33:53;10.02;;;1.60;;
31043;SDS011;17710;52.520;13.352;2023-08-21T12:36:20;3.85;;;1.17;;
31043;SDS011;17710;52.520;13.352;2023-08-21T12:38:46;5.00;;;1.08;;
31043;SDS011;17710;52.520;13.352;2023-08-21T12:41:13;5.20;;;1.00;;
31043;SDS011;17710;52.520;13.352;2023-08-21T12:43:40;3.25;;;0.75;;
31043;SDS011;17710;52.520;13.352;2023-08-21T12:46:07;3.25;;;0.95;;
31043;SDS011;17710;52.520;13.352;2023-08-21T12:48:34;2.15;;;0.82;;
31043;SDS011;17710;52.520;13.352;2023-08-21T12:51:01;2.92;;;0.85;;
31043;SDS011;17710;52.520;13.352;2023-08-21T12:53:28;2.40;;;0.88;;
31043;SDS011;17710;52.520;13.352;2023-08-21T12:55:54;5.57;;;1.20;;
31043;SDS011;17710;52.520;13.352;2023-08-21T12:58:21;3.67;;;0.90;;
31043;SDS011;17710;52.520;13.352;2023-08-21T13:00:49;4.10;;;0.80;;
31043;SDS011;17710;52.520;13.352;2023-08-21T13:03:17;3.70;;;0.90;;
31043;SDS011;17710;52.520;13.352;2023-08-21T13:05:45;3.33;;;0.90;;
31043;SDS011;17710;52.520;13.352;2023-08-21T13:08:11;3.03;;;0.70;;
31043;SDS011;17710;52.520;13.352;2023-08-21T13:10:39;3.17;;;0.80;;
31043;SDS011;17710;52.520;13.352;2023-08-21T13:13:05;2.72;;;0.70;;
31043;SDS011;17710;52.520;13.352;2023-08-21T13:15:32;5.75;;;2.10;;
31043;SDS011;17710;52.520;13.352;2023-08-21T13:17:59;4.88;;;1.52;;
31043;SDS011;17710;52.520;13.352;2023-08-21T13:20:26;12.85;;;2.92;;
31043;SDS011;17710;52.520;13.352;2023-08-21T13:22:52;9.38;;;3.97;;
31043;SDS011;17710;52.520;13.352;2023-08-21T13:25:20;5.60;;;2.75;;
31043;SDS011;17710;52.520;13.352;2023-08-21T13:27:47;6.22;;;1.70;;
31043;SDS011;17710;52.520;13.352;2023-08-21T13:30:15;5.25;;;1.42;;
31043;SDS011;17710;52.520;13.352;2023-08-21T13:32:42;9.77;;;1.48;;
31043;SDS011;17710;52.520;13.352;2023-08-21T13:35:10;4.43;;;1.10;;
31043;SDS011;17710;52.520;13.352;2023-08-21T13:37:37;2.70;;;0.95;;
31043;SDS011;17710;52.520;13.352;2023-08-21T13:40:05;7.60;;;0.93;;
31043;SDS011;17710;52.520;13.352;2023-08-21T13:42:35;2.92;;;1.40;;
31043;SDS011;17710;52.520;13.352;2023-08-21T13:45:06;4.22;;;1.35;;
31043;SDS011;17710;52.520;13.352;2023-08-21T13:47:33;4.35;;;1.40;;
31043;SDS011;17710;52.520;13.352;2023-08-21T13:49:59;1.95;;;0.75;;
31043;SDS011;17710;52.520;13.352;2023-08-21T13:52:27;2.70;;;0.90;;
31043;SDS011;17710;52.520;13.352;2023-08-21T13:54:53;2.13;;;0.95;;
31043;SDS011;17710;52.520;13.352;2023-08-21T13:57:20;4.57;;;0.93;;
31043;SDS011;17710;52.520;13.352;2023-08-21T13:59:46;3.17;;;1.23;;
31043;SDS011;17710;52.520;13.352;2023-08-21T14:02:13;2.72;;;0.82;;
31043;SDS011;17710;52.520;13.352;2023-08-21T14:04:39;3.30;;;1.13;;
31043;SDS011;17710;52.520;13.352;2023-08-21T14:07:06;1.92;;;0.90;;
31043;SDS011;17710;52.520;13.352;2023-08-21T14:09:33;6.28;;;1.30;;
31043;SDS011;17710;52.520;13.352;2023-08-21T14:12:01;3.88;;;1.30;;
31043;SDS011;17710;52.520;13.352;2023-08-21T14:14:27;5.18;;;0.93;;
31043;SDS011;17710;52.520;13.352;2023-08-21T14:16:54;3.97;;;0.77;;
31043;SDS011;17710;52.520;13.352;2023-08-21T14:19:20;1.92;;;0.70;;
31043;SDS011;17710;52.520;13.352;2023-08-21T14:21:46;2.85;;;0.82;;
31043;SDS011;17710;52.520;13.352;2023-08-21T14:24:13;2.47;;;1.30;;
31043;SDS011;17710;52.520;13.352;2023-08-21T14:26:40;2.13;;;0.70;;
31043;SDS011;17710;52.520;13.352;2023-08-21T14:29:07;3.97;;;0.73;;
31043;SDS011;17710;52.520;13.352;2023-08-21T14:31:33;2.83;;;0.65;;